• Join FlightAware (Why Join?)
  • Login
  • US Flag GB Flag 
19:54 EST


 

Airport Tracker/Info


-or-


 

Live Flight TrackerFlight Track Log ✈ AFL150 ✈ 01-Oct-2013 ✈ UUEE / SVO - MUHA / HAV

Flight Track Log - Related Links

Times and Time Zones

All times are in EDT time to prevent confusion due to time zone crossing. See the AFL150 flight status page for this flight to view local times or setup timezone preferences in your user account.

Time Position Orientation Groundspeed Altitude Reporting Facility
EDT Latitude Longitude Course Direction KTS MPH feet Rate Location/Type
06:37 55.9690 37.3130 295° West 185 213 2,900  Level FlightAware
06:38 55.9780 37.2840 299° West 210 242 3,100 840 Climbing FlightAware
06:38 55.9850 37.2600 298° West 224 258 3,400 1,200 Climbing FlightAware
06:38 55.9870 37.2400 280° West 238 274 3,600 1,200 Climbing FlightAware
06:38 55.9900 37.1990 277° West 260 299 4,000 2,100 Climbing FlightAware
06:39 56.0010 37.1600 297° West 261 300 5,000 2,760 Climbing FlightAware
06:39 56.0160 37.1120 299° West 267 307 6,100 2,520 Climbing FlightAware
06:39 56.0260 37.0730 295° West 273 314 6,900 2,640 Climbing FlightAware
06:40 56.0390 37.0230 295° West 272 313 8,100 2,640 Climbing FlightAware
06:40 56.0490 36.9800 293° West 279 321 8,900 2,520 Climbing FlightAware
06:41 56.0600 36.9380 295° West 279 321 9,800 1,920 Climbing FlightAware
06:41 56.0780 36.8600 292° West 306 352 10,700 1,260 Climbing FlightAware
06:42 56.0990 36.7740 294° West 340 391 11,300 1,500 Climbing FlightAware
06:42 56.1210 36.6810 293° West 354 407 12,500 2,100 Climbing FlightAware
06:43 56.1430 36.5850 292° West 362 417 13,800 2,220 Climbing FlightAware
06:43 56.1660 36.4880 293° West 368 423 15,100 2,040 Climbing FlightAware
06:44 56.1900 36.3880 293° West 378 435 16,200 1,860 Climbing FlightAware
06:45 56.2130 36.2880 293° West 389 448 17,300 1,920 Climbing FlightAware
06:45 56.2380 36.1790 292° West 394 453 18,500 2,040 Climbing FlightAware
06:46 56.2630 36.0730 293° West 398 458 19,700 1,860 Climbing FlightAware
06:46 56.2870 35.9690 293° West 403 464 20,700 1,800 Climbing FlightAware
06:47 56.3120 35.8570 292° West 407 468 21,800 1,740 Climbing FlightAware
06:48 56.3410 35.7310 293° West 409 471 23,000 1,680 Climbing FlightAware
06:48 56.3660 35.6210 292° West 414 476 23,900 1,380 Climbing FlightAware
06:49 56.3950 35.4910 292° West 423 487 24,700 1,260 Climbing FlightAware
06:49 56.4200 35.3940 295° West 426 490 25,400 1,260 Climbing FlightAware
06:50 56.4560 35.2890 302° West 432 497 26,100 1,200 Climbing FlightAware
06:51 56.5010 35.1920 310° West 436 502 26,800 1,200 Climbing FlightAware
06:51 56.5640 35.0950 320° Northwest 440 506 27,600 1,080 Climbing FlightAware
06:52 56.6130 35.0390 328° Northwest 444 511 28,100 960 Climbing FlightAware
06:52 56.6810 34.9850 336° Northwest 451 519 28,700 1,200 Climbing FlightAware
06:53 56.7620 34.9480 346° North 452 520 29,600 1,440 Climbing FlightAware
06:53 56.8230 34.9380 355° North 449 517 30,400 1,380 Climbing FlightAware
06:54 56.8750 34.9400 North 449 517 30,900 1,080 Climbing FlightAware
06:55 56.9580 34.9480 North 449 517 31,600 1,020 Climbing FlightAware
06:55 57.0320 34.9520 North 449 517 32,200 900 Climbing FlightAware
06:56 57.1020 34.9540 North 451 519 32,700 900 Climbing FlightAware
06:56 57.1770 34.9560 North 448 516 33,300 900 Climbing FlightAware
06:57 57.2480 34.9580 North 448 516 33,800 600 Climbing FlightAware
06:57 57.3200 34.9600 North 453 521 34,000 120 Climbing FlightAware
06:58 57.3960 34.9620 North 456 525 34,000  Level FlightAware
06:59 57.4690 34.9650 North 453 521 34,000  Level FlightAware
06:59 57.5420 34.9670 North 449 517 34,000  Level FlightAware
07:00 57.5930 34.9610 356° North 447 514 34,000  Level FlightAware
07:00 57.6740 34.9340 350° North 444 511 34,000  Level FlightAware
07:01 57.7420 34.8920 342° North 442 509 34,000  Level FlightAware
07:01 57.8040 34.8370 335° Northwest 441 507 34,000  Level FlightAware
07:02 57.8730 34.7530 327° Northwest 441 507 34,000  Level FlightAware
07:03 57.9310 34.6710 323° Northwest 441 507 34,000  Level FlightAware
07:03 57.9880 34.5930 324° Northwest 443 510 34,000  Level FlightAware
07:04 58.0470 34.5100 323° Northwest 444 511 34,000  Level FlightAware
07:04 58.1030 34.4310 323° Northwest 444 511 34,000  Level FlightAware
07:05 58.1610 34.3480 323° Northwest 444 511 34,000  Level FlightAware
07:05 58.1940 34.2780 312° West 445 512 34,000  Level FlightAware
07:06 58.2340 34.1850 309° West 446 513 34,000  Level FlightAware
07:07 58.2780 34.0860 310° West 446 513 34,000  Level FlightAware
07:07 58.3220 33.9830 309° West 447 514 34,000  Level FlightAware
07:08 58.3750 33.8580 309° West 447 514 34,000  Level FlightAware
07:09 58.4160 33.7610 309° West 447 514 34,000  Level FlightAware
07:09 58.4550 33.6700 309° West 447 514 34,000  Level FlightAware
07:10 58.4950 33.5760 309° West 447 514 34,000  Level FlightAware
07:10 58.5350 33.4810 309° West 447 514 34,000  Level FlightAware
07:11 58.5740 33.3870 309° West 447 514 34,000  Level FlightAware
07:11 58.6140 33.2930 309° West 447 514 34,000  Level FlightAware
07:12 58.7140 33.0600 310° West 448 516 34,000  Level FlightAware
07:13 58.7600 32.9490 309° West 450 518 34,000  Level FlightAware
07:13 58.8080 32.8330 309° West 451 519 34,000  Level FlightAware
07:14 58.8550 32.7170 308° West 452 520 34,000  Level FlightAware
07:15 58.9030 32.6020 309° West 454 522 34,000  Level FlightAware
07:15 58.9560 32.4710 308° West 454 522 34,000  Level FlightAware
07:16 58.9960 32.3720 308° West 453 521 34,000  Level FlightAware
07:16 59.0380 32.2680 308° West 454 522 34,000  Level FlightAware
07:17 59.0900 32.1380 308° West 453 521 34,000  Level FlightAware
07:18 59.1370 32.0210 308° West 452 520 34,000  Level FlightAware
07:18 59.1900 31.8860 308° West 452 520 34,000  Level FlightAware
07:19 59.2280 31.7920 308° West 452 520 34,000  Level FlightAware
07:19 59.2720 31.6800 308° West 454 522 34,000  Level FlightAware
07:20 59.3240 31.5480 308° West 455 524 34,000  Level FlightAware
07:21 59.3630 31.4380 305° West 459 528 34,000  Level FlightAware
07:21 59.3730 31.3920 293° West 466 536 34,000  Level FlightAware
07:21 59.3900 31.2350 282° West 472 543 34,000  Level FlightAware
07:22 59.4040 31.0910 281° West 470 541 34,000  Level FlightAware
07:23 59.4170 30.9610 281° West 470 541 34,000  Level FlightAware
07:23 59.4330 30.7960 281° West 469 540 34,000  Level FlightAware
07:24 59.4480 30.6490 281° West 469 540 34,000  Level FlightAware
07:24 59.4650 30.4630 280° West 467 537 34,000  Level FlightAware
07:25 59.4790 30.3170 281° West 467 537 34,000  Level FlightAware
07:26 59.4930 30.1660 280° West 468 539 34,000  Level FlightAware
07:26 59.5040 30.0390 280° West 469 540 34,000  Level FlightAware
07:27 59.5190 29.8770 280° West 471 542 34,000  Level FlightAware
07:27 59.5330 29.7240 280° West 472 543 34,000  Level FlightAware
07:28 59.5440 29.5970 280° West 473 544 34,000  Level FlightAware
07:29 59.5580 29.4320 280° West 475 547 34,000  Level FlightAware
07:29 59.5710 29.2800 280° West 475 547 34,000  Level FlightAware
07:30 59.5840 29.1300 280° West 475 547 34,000  Level FlightAware
07:30 59.5950 28.9900 279° West 474 545 34,000  Level FlightAware
07:31 59.6080 28.8320 279° West 476 548 34,000  Level FlightAware
07:31 59.6250 28.6870 283° West 471 542 34,000  Level FlightAware
07:32 59.6470 28.5420 287° West 470 541 34,000  Level FlightAware
07:33 59.6690 28.3920 286° West 470 541 34,000  Level FlightAware
07:33 59.6880 28.2560 286° West 470 541 34,000  Level FlightAware
07:34 59.7100 28.1030 286° West 469 540 34,000  Level FlightAware
07:34 59.7280 27.9750 286° West 470 541 34,000  Level FlightAware
07:35 59.7490 27.8250 286° West 470 541 34,000  Level FlightAware
07:36 59.7700 27.6730 285° West 471 542 34,000  Level FlightAware
07:36 59.7900 27.5300 286° West 472 543 34,000  Level FlightAware
07:37 59.8100 27.3810 285° West 472 543 34,000  Level FlightAware
07:37 59.8300 27.2370 286° West 471 542 34,000  Level FlightAware
07:38 59.8500 27.0830 285° West 471 542 34,000  Level FlightAware
07:38 59.8680 26.9500 285° West 473 544 34,000  Level FlightAware
07:39 59.8870 26.8050 285° West 474 545 34,000  Level FlightAware
07:40 59.9060 26.6530 284° West 475 547 34,000  Level FlightAware
07:40 59.9250 26.5100 285° West 477 549 34,000  Level FlightAware
07:41 59.9510 26.3490 288° West 470 541 34,000  Level FlightAware
07:41 59.9810 26.2210 295° West 462 532 34,000  Level FlightAware
07:42 60.0190 26.0940 301° West 458 527 34,000  Level FlightAware
07:43 60.0550 25.9560 298° West 462 532 34,000  Level FlightAware
07:43 60.0880 25.8280 297° West 462 532 34,000  Level FlightAware
07:44 60.1230 25.6970 298° West 460 529 34,000  Level FlightAware
07:44 60.1580 25.5620 298° West 460 529 34,000  Level FlightAware
07:45 60.1940 25.4260 298° West 459 528 34,000  Level FlightAware
07:45 60.2250 25.3060 298° West 459 528 34,000  Level FlightAware
07:46 60.2610 25.1700 298° West 460 529 34,000  Level FlightAware
07:47 60.2960 25.0320 297° West 460 529 34,000  Level FlightAware
07:47 60.3280 24.9080 298° West 460 529 34,000  Level FlightAware
07:48 60.3640 24.7660 297° West 461 531 34,000  Level FlightAware
07:48 60.3990 24.6310 298° West 462 532 34,000  Level FlightAware
07:49 60.4330 24.4940 297° West 463 533 34,000  Level FlightAware
07:50 60.4640 24.3710 297° West 462 532 34,000  Level FlightAware
07:50 60.4980 24.2350 297° West 462 532 34,000  Level FlightAware
07:51 60.5310 24.1010 297° West 461 531 34,000  Level FlightAware
07:51 60.5660 23.9590 297° West 461 531 34,000  Level FlightAware
07:52 60.5970 23.8300 296° West 459 528 34,000  Level FlightAware
07:52 60.6330 23.6850 297° West 459 528 34,000  Level FlightAware
07:53 60.6650 23.5500 296° West 457 526 34,000  Level FlightAware
07:54 60.6950 23.4250 296° West 458 527 34,000  Level FlightAware
07:54 60.7290 23.2820 296° West 458 527 34,000  Level FlightAware
07:55 60.7590 23.1540 296° West 459 528 34,000  Level FlightAware
07:55 60.7920 23.0140 296° West 459 528 34,000  Level FlightAware
07:56 60.8260 22.8680 296° West 459 528 34,000  Level FlightAware
07:57 60.8560 22.7390 296° West 459 528 34,000  Level FlightAware
07:57 60.8890 22.5960 295° West 459 528 34,000  Level FlightAware
07:58 60.9230 22.4510 296° West 460 529 34,000  Level FlightAware
07:58 60.9510 22.3290 295° West 458 527 34,000  Level FlightAware
07:59 60.9910 22.1930 301° West 450 518 34,000  Level FlightAware
07:59 61.0320 22.0610 303° West 451 519 34,000  Level FlightAware
08:00 61.0660 21.9540 303° West 451 519 34,000  Level FlightAware
08:01 61.1090 21.8110 302° West 451 519 34,000  Level FlightAware
08:01 61.1470 21.6850 302° West 450 518 34,000  Level FlightAware
08:02 61.1820 21.5670 302° West 450 518 34,000  Level FlightAware
08:02 61.2240 21.4280 302° West 451 519 34,000  Level FlightAware
08:03 61.2590 21.3110 302° West 451 519 34,000  Level FlightAware
08:04 61.2960 21.1710 299° West 460 529 34,000  Level FlightAware
08:04 61.3280 21.0230 294° West 458 527 34,000  Level FlightAware
08:05 61.3590 20.8840 295° West 457 526 34,000  Level FlightAware
08:05 61.3870 20.7530 294° West 456 525 34,000  Level FlightAware
08:06 61.4170 20.6150 294° West 456 525 34,000  Level FlightAware
08:06 61.4419 20.5007 295° West 456 525 34,000  Level FlightAware ADS-B (YKMB / KRB)
08:07 61.4674 20.3820 294° West 456 525 34,000  Level FlightAware ADS-B (YKMB / KRB)
08:08 61.5025 20.2170 294° West 455 524 34,000  Level FlightAware ADS-B (YKMB / KRB)
08:08 61.5380 20.0500 294° West 453 521 34,000  Level FlightAware
08:09 61.5650 19.9210 294° West 451 519 34,000  Level FlightAware
08:09 61.6020 19.7410 293° West 451 519 34,000  Level FlightAware
08:10 61.6280 19.6180 294° West 451 519 34,000  Level FlightAware
08:11 61.6580 19.4690 293° West 451 519 34,000 360 Level FlightAware
08:12 61.7030 19.2500 294° West 453 521 34,600 780 Climbing FlightAware
08:12 61.7340 19.0960 293° West 450 518 35,300 960 Climbing FlightAware
08:13 61.7630 18.9520 293° West 450 518 35,800 600 Climbing FlightAware
08:13 61.7910 18.8080 292° West 453 521 36,000 120 Climbing FlightAware
08:14 61.8190 18.6680 293° West 455 524 36,000  Level FlightAware
08:15 61.8460 18.5270 292° West 452 520 36,000  Level FlightAware
08:15 61.8730 18.3920 293° West 452 520 36,000  Level FlightAware
08:16 61.9000 18.2490 292° West 451 519 36,000  Level FlightAware
08:16 61.9310 18.0910 293° West 452 520 36,000  Level FlightAware
08:17 61.9570 17.9510 292° West 451 519 36,000  Level FlightAware
08:17 61.9860 17.8020 293° West 451 519 36,000  Level FlightAware
08:18 62.0110 17.6640 291° West 451 519 36,000  Level FlightAware
08:19 62.0390 17.5170 292° West 451 519 36,000  Level FlightAware
08:19 62.0660 17.3680 291° West 452 520 36,000  Level FlightAware
08:20 62.0930 17.2250 292° West 453 521 36,000  Level FlightAware
08:20 62.1170 17.0930 291° West 453 521 36,000  Level FlightAware
08:21 62.1430 16.9470 291° West 454 522 36,000  Level FlightAware
08:22 62.1700 16.7980 291° West 455 524 36,000  Level FlightAware
08:22 62.1910 16.6760 290° West 455 524 36,000  Level FlightAware
08:23 62.2290 16.4620 291° West 455 524 36,000  Level FlightAware
08:23 62.2520 16.3300 291° West 453 521 36,000  Level FlightAware
08:24 62.2790 16.1760 291° West 453 521 36,000  Level FlightAware
08:25 62.3030 16.0360 290° West 453 521 36,000  Level FlightAware
08:25 62.3290 15.8840 290° West 453 521 36,000  Level FlightAware
08:26 62.3560 15.7240 290° West 452 520 36,000  Level FlightAware
08:26 62.3790 15.5880 290° West 451 519 36,000  Level FlightAware
08:27 62.4030 15.4460 290° West 451 519 36,000  Level FlightAware
08:27 62.4300 15.2850 290° West 451 519 36,000  Level FlightAware
08:28 62.4540 15.1400 290° West 451 519 36,000  Level FlightAware
08:29 62.4780 14.9910 289° West 451 519 36,000  Level FlightAware
08:29 62.5030 14.8360 289° West 451 519 36,000  Level FlightAware
08:30 62.5250 14.6980 289° West 450 518 36,000  Level FlightAware
08:30 62.5460 14.5630 289° West 450 518 36,000  Level FlightAware
08:31 62.5700 14.4110 289° West 450 518 36,000  Level FlightAware
08:32 62.5960 14.2450 289° West 448 516 36,000  Level FlightAware
08:32 62.6180 14.1040 289° West 448 516 36,000  Level FlightAware
08:33 62.6420 13.9490 289° West 447 514 36,000  Level FlightAware
08:33 62.6620 13.8150 288° West 446 513 36,000  Level FlightAware
08:34 62.6850 13.6630 288° West 446 513 36,000  Level FlightAware
08:34 62.7070 13.5200 289° West 445 512 36,000  Level FlightAware
08:35 62.7330 13.3480 288° West 446 513 36,000  Level FlightAware
08:36 62.7510 13.2240 288° West 446 513 36,000  Level FlightAware
08:36 62.7750 13.0580 288° West 446 513 36,000  Level FlightAware
08:37 62.7980 12.9020 288° West 446 513 36,000  Level FlightAware
08:37 62.8200 12.7490 288° West 446 513 36,000  Level FlightAware
08:38 62.8380 12.6170 287° West 445 512 36,000  Level FlightAware
08:39 62.8610 12.4560 287° West 444 511 36,000  Level FlightAware
08:39 62.8820 12.3020 287° West 443 510 36,000  Level FlightAware
08:40 62.9020 12.1630 288° West 443 510 36,000  Level FlightAware
08:40 62.9240 11.9990 286° West 443 510 36,000  Level FlightAware
08:41 62.9450 11.8490 287° West 444 511 36,000  Level FlightAware
08:41 62.9640 11.7080 287° West 445 512 36,000  Level FlightAware
08:42 62.9830 11.5620 286° West 445 512 36,000  Level FlightAware
08:43 63.0050 11.3990 287° West 446 513 36,000  Level FlightAware
08:43 63.0230 11.2590 286° West 445 512 36,000  Level FlightAware
08:44 63.0440 11.0930 286° West 445 512 36,000  Level FlightAware
08:44 63.0650 10.9330 286° West 444 511 36,000  Level FlightAware
08:45 63.0820 10.7990 286° West 445 512 36,000  Level FlightAware
08:46 63.1020 10.6400 286° West 444 511 36,000  Level FlightAware
08:46 63.1210 10.4890 286° West 443 510 36,000  Level FlightAware
08:47 63.1390 10.3450 286° West 444 511 36,000  Level FlightAware
08:47 63.1580 10.1880 285° West 443 510 36,000  Level FlightAware
08:48 63.1770 10.0310 285° West 442 509 36,000  Level FlightAware
08:48 63.1930 9.8980 285° West 442 509 36,000  Level FlightAware
08:49 63.2110 9.7420 284° West 442 509 36,000  Level FlightAware
08:50 63.2320 9.5680 285° West 440 506 36,000  Level FlightAware
08:50 63.2490 9.4180 284° West 438 504 36,000  Level FlightAware
08:51 63.2670 9.2600 284° West 437 503 36,000  Level FlightAware
08:51 63.2830 9.1190 284° West 436 502 36,000  Level FlightAware
08:52 63.3010 8.9600 284° West 435 501 36,000  Level FlightAware
08:52 63.3160 8.8270 284° West 436 502 36,000  Level FlightAware
08:53 63.3330 8.6690 284° West 437 503 36,000  Level FlightAware
08:54 63.3500 8.5130 284° West 437 503 36,000  Level FlightAware
08:54 63.3660 8.3620 283° West 438 504 36,000  Level FlightAware
08:55 63.3830 8.2060 284° West 438 504 36,000  Level FlightAware
08:55 63.4000 8.0430 283° West 438 504 36,000  Level FlightAware
08:56 63.4150 7.9010 283° West 438 504 36,000  Level FlightAware
08:57 63.4320 7.7400 283° West 436 502 36,000  Level FlightAware
08:57 63.4480 7.5790 283° West 437 503 36,000  Level FlightAware
08:58 63.4620 7.4420 283° West 438 504 36,000  Level FlightAware
08:58 63.4780 7.2810 283° West 437 503 36,000  Level FlightAware
08:59 63.4930 7.1270 282° West 436 502 36,000  Level FlightAware
09:00 63.5100 6.9460 282° West 433 498 36,000  Level FlightAware
09:00 63.5260 6.7860 283° West 431 496 36,000  Level FlightAware
09:01 63.5390 6.6420 282° West 430 495 36,000  Level FlightAware
09:01 63.5540 6.4820 282° West 431 496 36,000  Level FlightAware
09:02 63.5680 6.3330 282° West 431 496 36,000  Level FlightAware
09:03 63.5830 6.1720 282° West 431 496 36,000  Level FlightAware
09:03 63.5950 6.0300 281° West 432 497 36,000  Level FlightAware
09:04 63.6090 5.8710 281° West 433 498 36,000  Level FlightAware
09:04 63.6230 5.7150 281° West 433 498 36,000  Level FlightAware
09:05 63.6360 5.5700 281° West 432 497 36,000  Level FlightAware
09:05 63.6500 5.4060 281° West 432 497 36,000  Level FlightAware
09:06 63.6620 5.2540 280° West 432 497 36,000  Level FlightAware
09:07 63.6760 5.0950 281° West 434 499 36,000  Level FlightAware
09:07 63.6870 4.9510 280° West 434 499 36,000  Level FlightAware
09:08 63.7010 4.7860 281° West 433 498 36,000  Level FlightAware
09:08 63.7130 4.6310 280° West 432 497 36,000  Level FlightAware
09:09 63.7230 4.4960 280° West 432 497 36,000  Level FlightAware
09:09 63.7350 4.3520 281° West 433 498 36,000  Level FlightAware
09:10 63.7460 4.2020 279° West 434 499 36,000  Level FlightAware
09:11 63.7580 4.0480 280° West 433 498 36,000  Level FlightAware
09:11 63.7690 3.9000 280° West 431 496 36,000  Level FlightAware
09:12 63.7790 3.7600 279° West 430 495 36,000  Level FlightAware
09:12 63.7920 3.5760 279° West 429 494 36,000  Level FlightAware
09:13 63.8020 3.4360 279° West 429 494 36,000  Level FlightAware
09:14 63.8130 3.2710 279° West 429 494 36,000  Level FlightAware
09:14 63.8240 3.1110 279° West 429 494 36,000  Level FlightAware
09:15 63.8340 2.9620 279° West 429 494 36,000  Level FlightAware
09:15 63.8450 2.8030 279° West 429 494 36,000  Level FlightAware
09:16 63.8550 2.6390 278° West 428 493 36,000  Level FlightAware
09:16 63.8650 2.4940 279° West 428 493 36,000  Level FlightAware
09:17 63.8740 2.3480 278° West 428 493 36,000  Level FlightAware
09:18 63.8820 2.2220 278° West 427 491 36,000  Level FlightAware
09:18 63.8920 2.0480 278° West 427 491 36,000  Level FlightAware
09:19 63.9050 1.8310 278° West 427 491 36,000  Level FlightAware
09:19 63.9130 1.6950 278° West 428 493 36,000  Level FlightAware
09:20 63.9220 1.5340 277° West 428 493 36,000  Level FlightAware
09:21 63.9300 1.3860 277° West 429 494 36,000  Level FlightAware
09:21 63.9400 1.2000 277° West 430 495 36,000  Level FlightAware
09:22 63.9490 1.0450 278° West 431 496 36,000  Level FlightAware
09:23 63.9600 0.8160 276° West 431 496 36,000  Level FlightAware
09:23 63.9690 0.6460 277° West 430 495 36,000  Level FlightAware
09:24 63.9780 0.4520 276° West 429 494 36,000  Level FlightAware
09:25 63.9880 0.2660 277° West 430 495 36,000  Level FlightAware
09:25 63.9950 0.1160 276° West 430 495 36,000  Level FlightAware
09:26 64.0030 -0.0530 276° West 431 496 36,000  Level FlightAware
09:27 64.0080 -0.2090 274° West 430 495 36,000  Level FlightAware
09:27 64.0120 -0.3570 274° West 431 496 36,000  Level FlightAware
09:28 64.0190 -0.5780 274° West 432 497 36,000  Level FlightAware
09:29 64.0240 -0.7390 274° West 431 496 36,000  Level FlightAware
09:29 64.0290 -0.9020 274° West 431 496 36,000  Level FlightAware
09:30 64.0330 -1.0710 273° West 432 497 36,000  Level FlightAware
09:30 64.0370 -1.2080 274° West 433 498 36,000  Level FlightAware
09:31 64.0410 -1.3770 273° West 435 501 36,000  Level FlightAware
09:31 64.0450 -1.5360 273° West 436 502 36,000  Level FlightAware
09:32 64.0490 -1.7020 273° West 436 502 36,000  Level FlightAware
09:33 64.0530 -1.8910 273° West 435 501 36,000  Level FlightAware
09:33 64.0570 -2.0580 273° West 435 501 36,000  Level FlightAware
09:34 64.0590 -2.2010 272° West 435 501 36,000  Level FlightAware
09:34 64.0630 -2.3770 273° West 436 502 36,000  Level FlightAware
09:35 64.0650 -2.5370 272° West 436 502 36,000  Level FlightAware
09:36 64.0690 -2.7350 273° West 436 502 36,000  Level FlightAware
09:37 64.0710 -2.8760 272° West 436 502 36,000  Level FlightAware
09:37 64.0730 -3.0170 272° West 436 502 36,000  Level FlightAware
09:38 64.0750 -3.1660 272° West 436 502 36,000  Level FlightAware
09:38 64.0780 -3.4220 272° West 434 499 36,000  Level FlightAware
09:39 64.0790 -3.5970 271° West 434 499 36,000  Level FlightAware
09:40 64.0810 -3.7570 272° West 434 499 36,000  Level FlightAware
09:40 64.0820 -3.9000 271° West 434 499 36,000  Level FlightAware
09:41 64.0830 -4.0710 271° West 433 498 36,000  Level FlightAware
09:41 64.0840 -4.2240 271° West 433 498 36,000  Level FlightAware
09:42 64.0850 -4.3880 271° West 432 497 36,000  Level FlightAware
09:42 64.0860 -4.5520 271° West 432 497 36,000  Level FlightAware
09:43 64.0860 -4.6980 270° West 432 497 36,000  Level FlightAware
09:44 64.0860 -4.8710 270° West 431 496 36,000  Level FlightAware
09:44 64.0860 -4.9940 270° West 431 496 36,000  Level FlightAware
09:45 64.0860 -5.1860 270° West 430 495 36,000  Level FlightAware
09:45 64.0860 -5.3510 270° West 429 494 36,000  Level FlightAware
09:46 64.0850 -5.4940 269° West 429 494 36,000  Level FlightAware
09:46 64.0850 -5.6560 270° West 428 493 36,000  Level FlightAware
09:47 64.0840 -5.8170 269° West 428 493 36,000  Level FlightAware
09:48 64.0830 -5.9620 269° West 427 491 36,000  Level FlightAware
09:48 64.0820 -6.1350 269° West 426 490 36,000  Level FlightAware
09:49 64.0810 -6.2790 269° West 425 489 36,000  Level FlightAware
09:49 64.0790 -6.4400 268° West 426 490 36,000  Level FlightAware
09:50 64.0770 -6.6000 268° West 428 493 36,000  Level FlightAware
09:51 64.0760 -6.7510 269° West 429 494 36,000  Level FlightAware
09:51 64.0740 -6.9070 268° West 430 495 36,000  Level FlightAware
09:52 64.0720 -7.0620 268° West 430 495 36,000  Level FlightAware
09:52 64.0690 -7.2330 268° West 430 495 36,000  Level FlightAware
09:53 64.0670 -7.3850 268° West 429 494 36,000  Level FlightAware
09:53 64.0640 -7.5440 268° West 428 493 36,000  Level FlightAware
09:54 64.0600 -7.7160 267° West 428 493 36,000  Level FlightAware
09:55 64.0570 -7.8540 267° West 428 493 36,000  Level FlightAware
09:55 64.0540 -7.9930 267° West 428 493 36,000  Level FlightAware
09:56 64.0510 -8.1310 267° West 428 493 36,000  Level FlightAware
09:57 64.0470 -8.2690 266° West 428 493 36,000  Level FlightAware
09:57 64.0440 -8.4150 267° West 428 493 36,000  Level FlightAware
09:58 64.0410 -8.5530 267° West 428 493 36,000  Level FlightAware
09:58 64.0380 -8.6920 267° West 428 493 36,000  Level FlightAware
09:59 64.0340 -8.8300 266° West 428 493 36,000  Level FlightAware
10:00 64.0310 -8.9760 267° West 428 493 36,000  Level FlightAware
10:00 64.0280 -9.1180 267° West 428 493 36,000  Level FlightAware
10:01 64.0250 -9.2600 267° West 428 493 36,000  Level FlightAware
10:02 64.0210 -9.3980 266° West 428 493 36,000  Level FlightAware
10:02 64.0170 -9.5780 267° West 428 493 36,000  Level FlightAware
10:03 63.9960 -10.0610 265° West 433 498 36,000  Level FlightAware
10:03 63.9850 -10.2430 262° West 435 501 36,000  Level FlightAware
10:04 63.9740 -10.4050 261° West 434 499 36,000  Level FlightAware
10:05 63.9650 -10.5480 262° West 434 499 36,000  Level FlightAware
10:05 63.9530 -10.7230 261° West 434 499 36,000  Level FlightAware
10:06 63.9440 -10.8630 262° West 434 499 36,000  Level FlightAware
10:06 63.9320 -11.0350 261° West 433 498 36,000  Level FlightAware
10:07 63.9200 -11.1960 260° West 432 497 36,000  Level FlightAware
10:07 63.9100 -11.3380 261° West 432 497 36,000  Level FlightAware
10:08 63.8980 -11.5000 261° West 430 495 36,000  Level FlightAware
10:09 63.8870 -11.6590 261° West 430 495 36,000  Level FlightAware
10:09 63.8760 -11.8010 260° West 430 495 36,000  Level FlightAware
10:10 63.8650 -11.9480 260° West 430 495 36,000  Level FlightAware
10:10 63.8510 -12.1270 260° West 431 496 36,000  Level FlightAware
10:11 63.8390 -12.2670 259° West 431 496 36,000  Level FlightAware
10:12 63.8260 -12.4400 260° West 432 497 36,000  Level FlightAware
10:12 63.8130 -12.6070 260° West 434 499 36,000  Level FlightAware
10:13 63.8000 -12.7590 259° West 435 501 36,000  Level FlightAware
10:13 63.7880 -12.9070 260° West 435 501 36,000  Level FlightAware
10:14 63.7740 -13.0690 259° West 432 497 36,000  Level FlightAware
10:15 63.7610 -13.2290 260° West 431 496 36,000  Level FlightAware
10:15 63.7480 -13.3710 258° West 429 494 36,000  Level FlightAware
10:16 63.7340 -13.5300 259° West 428 493 36,000  Level FlightAware
10:16 63.7220 -13.6710 259° West 428 493 36,000  Level FlightAware
10:17 63.7070 -13.8300 258° West 428 493 36,000  Level FlightAware
10:17 63.6920 -13.9930 258° West 433 498 36,000  Level FlightAware
10:18 63.6790 -14.1360 258° West 440 506 36,000  Level FlightAware
10:19 63.6630 -14.3070 258° West 443 510 36,000  Level FlightAware
10:19 63.6500 -14.4480 258° West 442 509 36,000  Level FlightAware
10:20 63.6340 -14.6110 258° West 442 509 36,000  Level FlightAware
10:20 63.6210 -14.7530 258° West 443 510 36,000  Level FlightAware
10:21 63.6030 -14.9270 257° West 443 510 36,000  Level FlightAware
10:22 63.5870 -15.0880 257° West 444 511 36,000  Level FlightAware
10:22 63.5720 -15.2380 257° West 446 513 36,000  Level FlightAware
10:23 63.5570 -15.3930 258° West 447 514 36,000  Level FlightAware
10:23 63.5400 -15.5580 257° West 449 517 36,000  Level FlightAware
10:24 63.5240 -15.7090 257° West 449 517 36,000  Level FlightAware
10:24 63.5100 -15.8370 256° West 451 519 36,000  Level FlightAware
10:25 63.4940 -15.9900 257° West 452 520 36,000  Level FlightAware
10:26 63.4750 -16.1620 256° West 453 521 36,000  Level FlightAware
10:26 63.4580 -16.3270 257° West 453 521 36,000  Level FlightAware
10:27 63.4410 -16.4790 256° West 452 520 36,000  Level FlightAware
10:27 63.4240 -16.6330 256° West 450 518 36,000  Level FlightAware
10:28 63.4040 -16.8060 256° West 448 516 36,000  Level FlightAware
10:28 63.3880 -16.9450 256° West 447 514 36,000  Level FlightAware
10:29 63.3690 -17.1120 256° West 447 514 36,000  Level FlightAware
10:30 63.3520 -17.2540 255° West 448 516 36,000  Level FlightAware
10:30 63.3330 -17.4170 256° West 450 518 36,000  Level FlightAware
10:31 63.3140 -17.5780 255° West 452 520 36,000  Level FlightAware
10:31 63.2930 -17.7530 255° West 454 522 36,000  Level FlightAware
10:32 63.2730 -17.9160 255° West 455 524 36,000  Level FlightAware
10:33 63.2530 -18.0790 255° West 457 526 36,000  Level FlightAware
10:33 63.2340 -18.2290 254° West 457 526 36,000  Level FlightAware
10:34 63.2140 -18.3910 255° West 458 527 36,000  Level FlightAware
10:34 63.1940 -18.5450 254° West 460 529 36,000  Level FlightAware
10:35 63.1740 -18.7080 255° West 460 529 36,000  Level FlightAware
10:36 63.1520 -18.8730 254° West 460 529 36,000  Level FlightAware
10:36 63.1330 -19.0230 254° West 459 528 36,000  Level FlightAware
10:37 63.1170 -19.1770 257° West 459 528 36,000  Level FlightAware
10:37 63.1070 -19.3450 263° West 460 529 36,000  Level FlightAware
10:38 63.0970 -19.4930 262° West 461 531 36,000  Level FlightAware
10:38 63.0870 -19.6530 262° West 460 529 36,000  Level FlightAware
10:39 63.0760 -19.8290 262° West 458 527 36,000  Level FlightAware
10:40 63.0640 -20.0000 261° West 457 526 36,000  Level FlightAware
10:40 63.0540 -20.1420 261° West 456 525 36,000  Level FlightAware
10:41 63.0430 -20.3030 261° West 456 525 36,000  Level FlightAware
10:41 63.0310 -20.4780 261° West 454 522 36,000  Level FlightAware
10:42 63.0200 -20.6310 261° West 452 520 36,000  Level FlightAware
10:43 63.0080 -20.7950 261° West 450 518 36,000  Level FlightAware
10:43 62.9960 -20.9570 261° West 450 518 36,000  Level FlightAware
10:44 62.9840 -21.1110 260° West 452 520 36,000  Level FlightAware
10:44 62.9730 -21.2550 261° West 452 520 36,000  Level FlightAware
10:45 62.9610 -21.4180 261° West 452 520 36,000  Level FlightAware
10:45 62.9490 -21.5590 259° West 452 520 36,000  Level FlightAware
10:46 62.9350 -21.7430 261° West 451 519 36,000  Level FlightAware
10:47 62.9220 -21.8950 259° West 450 518 36,000  Level FlightAware
10:47 62.9100 -22.0480 260° West 449 517 36,000  Level FlightAware
10:48 62.8970 -22.2010 260° West 448 516 36,000  Level FlightAware
10:48 62.8830 -22.3640 259° West 449 517 36,000  Level FlightAware
10:49 62.8710 -22.5020 259° West 449 517 36,000  Level FlightAware
10:50 62.8560 -22.6760 259° West 450 518 36,000  Level FlightAware
10:50 62.8410 -22.8440 259° West 450 518 36,000  Level FlightAware
10:51 62.8280 -22.9860 259° West 450 518 36,000  Level FlightAware
10:51 62.8140 -23.1450 259° West 450 518 36,000  Level FlightAware
10:52 62.8000 -23.2990 259° West 449 517 36,000  Level FlightAware
10:52 62.7870 -23.4400 259° West 449 517 36,000  Level FlightAware
10:53 62.7710 -23.6100 258° West 450 518 36,000  Level FlightAware
10:54 62.7560 -23.7660 258° West 450 518 36,000  Level FlightAware
10:54 62.7400 -23.9270 258° West 451 519 36,000  Level FlightAware
10:55 62.7260 -24.0720 258° West 451 519 36,000  Level FlightAware
10:55 62.7100 -24.2310 258° West 450 518 36,000  Level FlightAware
10:56 62.6950 -24.3790 258° West 450 518 36,000  Level FlightAware
10:57 62.6800 -24.5260 258° West 449 517 36,000  Level FlightAware
10:57 62.6640 -24.6850 258° West 449 517 36,000  Level FlightAware
10:58 62.6470 -24.8480 257° West 448 516 36,000  Level FlightAware
10:58 62.6320 -24.9890 257° West 448 516 36,000  Level FlightAware
10:59 62.6160 -25.1430 257° West 448 516 36,000  Level FlightAware
10:59 62.6000 -25.2920 257° West 448 516 36,000  Level FlightAware
11:00 62.5840 -25.4350 256° West 448 516 36,000  Level FlightAware
11:01 62.5660 -25.5990 257° West 446 513 36,000  Level FlightAware
11:01 62.5490 -25.7540 257° West 447 514 36,000  Level FlightAware
11:02 62.5320 -25.9040 256° West 450 518 36,000  Level FlightAware
11:03 62.5090 -26.1060 256° West 451 519 36,000  Level FlightAware
11:03 62.4930 -26.2450 256° West 452 520 36,000  Level FlightAware
11:04 62.4820 -26.3400 256° West 451 519 36,000  Level FlightAware
11:04 62.4620 -26.5080 256° West 452 520 36,000  Level FlightAware
11:05 62.4460 -26.6480 256° West 453 521 36,000  Level FlightAware
11:05 62.4200 -26.8650 256° West 449 517 36,000  Level FlightAware
11:06 62.4010 -27.0170 255° West 443 510 36,000  Level FlightAware
11:07 62.3840 -27.1610 256° West 443 510 36,000  Level FlightAware
11:07 62.3640 -27.3160 255° West 444 511 36,000  Level FlightAware
11:08 62.3510 -27.4240 256° West 444 511 36,000  Level FlightAware
11:08 62.3280 -27.6070 255° West 442 509 36,000  Level FlightAware
11:09 62.3080 -27.7640 255° West 440 506 36,000  Level FlightAware
11:10 62.2910 -27.8980 255° West 439 505 36,000  Level FlightAware
11:10 62.2720 -28.0390 254° West 439 505 36,000  Level FlightAware
11:11 62.2560 -28.1630 255° West 439 505 36,000  Level FlightAware
11:12 62.2240 -28.4070 254° West 440 506 36,000  Level FlightAware
11:12 62.2060 -28.5390 254° West 441 507 36,000  Level FlightAware
11:13 62.1750 -28.7650 254° West 442 509 36,000  Level FlightAware
11:14 62.1530 -28.9260 254° West 441 507 36,000  Level FlightAware
11:14 62.1320 -29.0770 253° West 442 509 36,000  Level FlightAware
11:15 62.1050 -29.2750 254° West 442 509 36,000  Level FlightAware
11:16 62.0850 -29.4150 253° West 445 512 36,000  Level FlightAware
11:16 62.0650 -29.5510 253° West 445 512 36,000  Level FlightAware
11:17 62.0480 -29.6720 253° West 445 512 36,000  Level FlightAware
11:18 62.0120 -29.9150 253° West 447 514 36,000  Level FlightAware
11:18 61.9820 -30.0820 249° West 446 513 36,000  Level FlightAware
11:19 61.9580 -30.1990 246° West 446 513 36,000  Level FlightAware
11:19 61.9340 -30.3230 248° West 446 513 36,000  Level FlightAware
11:20 61.9080 -30.4530 247° West 446 513 36,000  Level FlightAware
11:21 61.8840 -30.5730 247° West 446 513 36,000  Level FlightAware
11:21 61.8570 -30.7030 246° West 446 513 36,000  Level FlightAware
11:22 61.8330 -30.8260 248° West 446 513 36,000  Level FlightAware
11:23 61.8080 -30.9490 247° West 446 513 36,000  Level FlightAware
11:23 61.7830 -31.0720 247° West 446 513 36,000  Level FlightAware
11:24 61.7560 -31.2090 247° West 446 513 36,000  Level FlightAware
11:24 61.7310 -31.3350 247° West 446 513 36,000  Level FlightAware
11:25 61.7070 -31.4510 246° West 446 513 36,000  Level FlightAware
11:26 61.6820 -31.5770 247° West 446 513 36,000  Level FlightAware
11:26 61.6570 -31.6990 247° West 446 513 36,000  Level FlightAware
11:27 61.6330 -31.8180 247° West 446 513 36,000  Level FlightAware
11:27 61.6100 -31.9340 247° West 446 513 36,000  Level FlightAware
11:30 61.4714 -32.3999 238° Southwest  Level FlightAware Approximate
11:31 61.4064 -32.6152 238° Southwest  Level FlightAware Approximate
11:32 61.3411 -32.8296 238° Southwest  Level FlightAware Approximate
11:33 61.2754 -33.0431 237° Southwest  Level FlightAware Approximate
11:34 61.2094 -33.2557 237° Southwest  Level FlightAware Approximate
11:35 61.1431 -33.4674 237° Southwest  Level FlightAware Approximate
11:36 61.0764 -33.6782 237° Southwest  Level FlightAware Approximate
11:37 61.0094 -33.8882 237° Southwest  Level FlightAware Approximate
11:38 60.9421 -34.0972 237° Southwest  Level FlightAware Approximate
11:39 60.8745 -34.3054 236° Southwest  Level FlightAware Approximate
11:40 60.8065 -34.5126 236° Southwest  Level FlightAware Approximate
11:41 60.7383 -34.7276 238° Southwest  Level FlightAware Approximate
11:42 60.6743 -34.9391 238° Southwest  Level FlightAware Approximate
11:43 60.6099 -35.1498 238° Southwest  Level FlightAware Approximate
11:44 60.5451 -35.3597 238° Southwest  Level FlightAware Approximate
11:45 60.4801 -35.5687 238° Southwest  Level FlightAware Approximate
11:46 60.4147 -35.7769 238° Southwest  Level FlightAware Approximate
11:47 60.3490 -35.9842 237° Southwest  Level FlightAware Approximate
11:48 60.2841 -36.1923 238° Southwest  Level FlightAware Approximate
11:49 60.2194 -36.4000 238° Southwest  Level FlightAware Approximate
11:50 60.1543 -36.6069 238° Southwest  Level FlightAware Approximate
11:51 60.0888 -36.8130 238° Southwest  Level FlightAware Approximate
11:52 60.0231 -37.0182 237° Southwest  Level FlightAware Approximate
11:53 59.9570 -37.2226 237° Southwest  Level FlightAware Approximate
11:54 59.8907 -37.4263 237° Southwest  Level FlightAware Approximate
11:55 59.8240 -37.6291 237° Southwest  Level FlightAware Approximate
11:56 59.7570 -37.8311 237° Southwest  Level FlightAware Approximate
11:57 59.6897 -38.0322 237° Southwest  Level FlightAware Approximate
11:58 59.6220 -38.2326 236° Southwest  Level FlightAware Approximate
11:59 59.5541 -38.4322 236° Southwest  Level FlightAware Approximate
12:00 59.4859 -38.6309 236° Southwest  Level FlightAware Approximate
12:01 59.4174 -38.8289 236° Southwest  Level FlightAware Approximate
12:02 59.3486 -39.0261 236° Southwest  Level FlightAware Approximate
12:03 59.2794 -39.2224 235° Southwest  Level FlightAware Approximate
12:04 59.2100 -39.4180 235° Southwest  Level FlightAware Approximate
12:05 59.1403 -39.6127 235° Southwest  Level FlightAware Approximate
12:06 59.0703 -39.8067 235° Southwest  Level FlightAware Approximate
12:07 59.0000 -39.9999 235° Southwest  Level FlightAware Approximate
12:08 58.9485 -40.2138 245° Southwest  Level FlightAware Approximate
12:09 58.8966 -40.4271 245° Southwest  Level FlightAware Approximate
12:10 58.8443 -40.6398 245° Southwest  Level FlightAware Approximate
12:11 58.7917 -40.8518 244° Southwest  Level FlightAware Approximate
12:12 58.7388 -41.0632 244° Southwest  Level FlightAware Approximate
12:13 58.6855 -41.2739 244° Southwest  Level FlightAware Approximate
12:14 58.6318 -41.4840 244° Southwest  Level FlightAware Approximate
12:15 58.5778 -41.6935 244° Southwest  Level FlightAware Approximate
12:16 58.5235 -41.9023 244° Southwest  Level FlightAware Approximate
12:17 58.4688 -42.1104 243° Southwest  Level FlightAware Approximate
12:18 58.4138 -42.3179 243° Southwest  Level FlightAware Approximate
12:19 58.3585 -42.5248 243° Southwest  Level FlightAware Approximate
12:20 58.3029 -42.7310 243° Southwest  Level FlightAware Approximate
12:21 58.2469 -42.9365 243° Southwest  Level FlightAware Approximate
12:22 58.1906 -43.1414 243° Southwest  Level FlightAware Approximate
12:23 58.1339 -43.3457 242° Southwest  Level FlightAware Approximate
12:24 58.0769 -43.5493 242° Southwest  Level FlightAware Approximate
12:25 58.0196 -43.7522 242° Southwest  Level FlightAware Approximate
12:26 57.9620 -43.9545 242° Southwest  Level FlightAware Approximate
12:27 57.9041 -44.1562 242° Southwest  Level FlightAware Approximate
12:28 57.8458 -44.3572 241° Southwest  Level FlightAware Approximate
12:29 57.7872 -44.5575 241° Southwest  Level FlightAware Approximate
12:30 57.7283 -44.7572 241° Southwest  Level FlightAware Approximate
12:31 57.6691 -44.9563 241° Southwest  Level FlightAware Approximate
12:32 57.6096 -45.1547 241° Southwest  Level FlightAware Approximate
12:33 57.5498 -45.3524 241° Southwest  Level FlightAware Approximate
12:34 57.4897 -45.5495 240° Southwest  Level FlightAware Approximate
12:35 57.4292 -45.7460 240° Southwest  Level FlightAware Approximate
12:36 57.3685 -45.9418 240° Southwest  Level FlightAware Approximate
12:37 57.3074 -46.1369 240° Southwest  Level FlightAware Approximate
12:38 57.2461 -46.3314 240° Southwest  Level FlightAware Approximate
12:39 57.1844 -46.5253 240° Southwest  Level FlightAware Approximate
12:40 57.1225 -46.7185 239° Southwest  Level FlightAware Approximate
12:41 57.0602 -46.9110 239° Southwest  Level FlightAware Approximate
12:42 56.9977 -47.1030 239° Southwest  Level FlightAware Approximate
12:43 56.9349 -47.2942 239° Southwest  Level FlightAware Approximate
12:44 56.8717 -47.4849 239° Southwest  Level FlightAware Approximate
12:45 56.8084 -47.6749 239° Southwest  Level FlightAware Approximate
12:46 56.7453 -47.8649 239° Southwest  Level FlightAware Approximate
12:47 56.6818 -48.0542 239° Southwest  Level FlightAware Approximate
12:48 56.6181 -48.2428 239° Southwest  Level FlightAware Approximate
12:49 56.5541 -48.4309 238° Southwest  Level FlightAware Approximate
12:50 56.4898 -48.6182 238° Southwest  Level FlightAware Approximate
12:51 56.4252 -48.8050 238° Southwest  Level FlightAware Approximate
12:52 56.3604 -48.9911 238° Southwest  Level FlightAware Approximate
12:53 56.2952 -49.1766 238° Southwest  Level FlightAware Approximate
12:54 56.2298 -49.3615 238° Southwest  Level FlightAware Approximate
12:55 56.1641 -49.5457 237° Southwest  Level FlightAware Approximate
12:56 56.0982 -49.7293 237° Southwest  Level FlightAware Approximate
12:57 56.0320 -49.9122 237° Southwest  Level FlightAware Approximate
12:58 55.9519 -50.0733 220° Southwest  Level FlightAware Approximate
12:59 55.8592 -50.2139 220° Southwest  Level FlightAware Approximate
13:00 55.7663 -50.3539 220° Southwest  Level FlightAware Approximate
13:01 55.6732 -50.4932 220° Southwest  Level FlightAware Approximate
13:02 55.5800 -50.6319 220° Southwest  Level FlightAware Approximate
13:03 55.4866 -50.7699 220° Southwest  Level FlightAware Approximate
13:04 55.3930 -50.9072 220° Southwest  Level FlightAware Approximate
13:05 55.2994 -51.0439 220° Southwest  Level FlightAware Approximate
13:06 55.2055 -51.1799 220° Southwest  Level FlightAware Approximate
13:07 55.1115 -51.3153 220° Southwest  Level FlightAware Approximate
13:08 55.0174 -51.4501 219° Southwest  Level FlightAware Approximate
13:09 54.9231 -51.5843 219° Southwest  Level FlightAware Approximate
13:10 54.8287 -51.7178 219° Southwest  Level FlightAware Approximate
13:11 54.7341 -51.8507 219° Southwest  Level FlightAware Approximate
13:12 54.6393 -51.9829 219° Southwest  Level FlightAware Approximate
13:13 54.5445 -52.1146 219° Southwest  Level FlightAware Approximate
13:14 54.4495 -52.2456 219° Southwest  Level FlightAware Approximate
13:15 54.3543 -52.3760 219° Southwest  Level FlightAware Approximate
13:16 54.2590 -52.5059 219° Southwest  Level FlightAware Approximate
13:17 54.1636 -52.6351 218° Southwest  Level FlightAware Approximate
13:18 54.0680 -52.7637 218° Southwest  Level FlightAware Approximate
13:19 53.9723 -52.8918 218° Southwest  Level FlightAware Approximate
13:20 53.8765 -53.0193 218° Southwest  Level FlightAware Approximate
13:21 53.7805 -53.1461 218° Southwest  Level FlightAware Approximate
13:22 53.6844 -53.2724 218° Southwest  Level FlightAware Approximate
13:23 53.5881 -53.3982 218° Southwest  Level FlightAware Approximate
13:24 53.4918 -53.5233 218° Southwest  Level FlightAware Approximate
13:25 53.3953 -53.6479 218° Southwest  Level FlightAware Approximate
13:26 53.2986 -53.7719 218° Southwest  Level FlightAware Approximate
13:27 53.2019 -53.8954 217° Southwest  Level FlightAware Approximate
13:28 53.1050 -54.0182 217° Southwest  Level FlightAware Approximate
13:29 53.0371 -54.1771 242° Southwest  Level FlightAware Approximate
13:30 52.9804 -54.3561 242° Southwest  Level FlightAware Approximate
13:31 52.9232 -54.5354 242° Southwest  Level FlightAware Approximate
13:31 52.9167 -54.5167 241° Southwest 370 426 36,000  Level Gander Center
13:32 52.8657 -54.7143 242° Southwest  Level FlightAware Approximate
13:32 52.8833 -54.6833 252° West 380 437 36,000  Level Gander Center
13:33 52.8079 -54.8927 242° Southwest  Level FlightAware Approximate
13:33 52.8167 -54.8333 234° Southwest 390 449 36,000  Level Gander Center
13:33 52.7833 -54.9167 237° Southwest 390 449 36,000  Level Moncton Center
13:34 52.7499 -55.0707 242° Southwest  Level FlightAware Approximate
13:34 52.7333 -55.0667 241° Southwest 390 449 36,000  Level Moncton Center
13:35 52.6915 -55.2481 242° Southwest  Level FlightAware Approximate
13:35 52.6333 -55.2000 219° Southwest 400 460 36,000  Level Moncton Center
13:36 52.6330 -55.4251 241° Southwest  Level FlightAware Approximate
13:36 52.5667 -55.3500 234° Southwest 410 472 36,000  Level Moncton Center
13:37 52.5167 -55.4833 238° Southwest 400 460 36,000  Level Moncton Center
13:38 52.4167 -55.6000 215° Southwest 400 460 36,000  Level Moncton Center
13:39 52.3500 -55.7667 237° Southwest 400 460 36,000  Level Moncton Center
13:40 52.2667 -55.8833 221° Southwest 400 460 36,000  Level Moncton Center
13:41 52.2000 -56.0000 227° Southwest 400 460 36,000  Level Moncton Center
13:42 52.1167 -56.1500 228° Southwest 400 460 36,000  Level Moncton Center
13:43 52.0500 -56.2833 231° Southwest 400 460 36,000  Level Moncton Center
13:44 51.9667 -56.4333 228° Southwest 400 460 36,000  Level Moncton Center
13:45 51.9000 -56.5500 227° Southwest 400 460 36,000  Level Moncton Center
13:46 51.8167 -56.7000 228° Southwest 400 460 36,000  Level Moncton Center
13:47 51.7500 -56.8167 227° Southwest 400 460 36,000  Level Moncton Center
13:48 51.6667 -56.9500 225° Southwest 400 460 36,000  Level Moncton Center
13:49 51.6000 -57.0667 227° Southwest 400 460 36,000  Level Moncton Center
13:50 51.5167 -57.2167 228° Southwest 390 449 36,000  Level Moncton Center
13:51 51.4333 -57.3333 221° Southwest 400 460 36,000  Level Moncton Center
13:52 51.3667 -57.4500 228° Southwest 390 449 36,000  Level Moncton Center
13:53 51.2833 -57.6000 228° Southwest 400 460 36,000  Level Moncton Center
13:54 51.2167 -57.7167 228° Southwest 400 460 36,000  Level Moncton Center
13:55 51.1333 -57.8333 221° Southwest 390 449 36,000  Level Moncton Center
13:56 51.0500 -57.9500 221° Southwest 390 449 36,000  Level Moncton Center
13:57 50.9833 -58.1000 235° Southwest 390 449 36,000  Level Moncton Center
13:58 50.9000 -58.2167 221° Southwest 380 437 36,000  Level Moncton Center
13:59 50.8333 -58.3333 228° Southwest 390 449 36,000  Level Moncton Center
14:00 50.7500 -58.4333 217° Southwest 390 449 36,000  Level Moncton Center
14:01 50.6667 -58.5833 229° Southwest 390 449 36,000  Level Moncton Center
14:02 50.6167 -58.7000 236° Southwest 390 449 36,000  Level Moncton Center
14:03 50.5333 -58.8167 222° Southwest 390 449 36,000  Level Moncton Center
14:04 50.4500 -58.9500 226° Southwest 390 449 36,000  Level Moncton Center
14:05 50.3667 -59.0667 222° Southwest 390 449 36,000  Level Moncton Center
14:06 50.3000 -59.1833 228° Southwest 390 449 36,000  Level Moncton Center
14:07 50.2167 -59.3000 222° Southwest 390 449 36,000  Level Moncton Center
14:08 50.1333 -59.4333 226° Southwest 390 449 36,000  Level Moncton Center
14:09 50.0667 -59.5500 228° Southwest 390 449 36,000  Level Moncton Center
14:10 49.9833 -59.6500 218° Southwest 390 449 36,000  Level Moncton Center
14:11 49.9000 -59.8000 229° Southwest 390 449 36,000  Level Moncton Center
14:12 49.8167 -59.9000 218° Southwest 400 460 36,000  Level Moncton Center
14:13 49.7500 -60.0167 229° Southwest 400 460 36,000  Level Moncton Center
14:14 49.6667 -60.1333 222° Southwest 390 449 36,000  Level Moncton Center
14:15 49.5833 -60.2667 226° Southwest 390 449 36,000  Level Moncton Center
14:16 49.5000 -60.3667 218° Southwest 400 460 36,000  Level Moncton Center
14:17 49.4333 -60.5167 236° Southwest 400 460 36,000  Level Moncton Center
14:18 49.3500 -60.6167 218° Southwest 400 460 36,000  Level Moncton Center
14:19 49.2667 -60.7500 226° Southwest 400 460 36,000  Level Moncton Center
14:20 49.1833 -60.8667 222° Southwest 400 460 36,000  Level Moncton Center
14:21 49.1000 -60.9667 218° Southwest 400 460 36,000  Level Moncton Center
14:22 49.0333 -61.1000 233° Southwest 410 472 36,000  Level Moncton Center
14:23 48.9500 -61.2167 223° Southwest 410 472 36,000  Level Moncton Center
14:24 48.8500 -61.3500 221° Southwest 410 472 36,000  Level Moncton Center
14:25 48.7667 -61.4500 218° Southwest 410 472 36,000  Level Moncton Center
14:26 48.6833 -61.5500 218° Southwest 400 460 36,000  Level Moncton Center
14:27 48.6000 -61.6833 227° Southwest 410 472 36,000  Level Moncton Center
14:28 48.5167 -61.8000 223° Southwest 410 472 36,000  Level Moncton Center
14:29 48.4500 -61.9167 229° Southwest 410 472 36,000  Level Moncton Center
14:30 48.3500 -62.0333 218° Southwest 420 483 36,000  Level Moncton Center
14:31 48.2667 -62.1667 227° Southwest 410 472 36,000  Level Moncton Center
14:32 48.1833 -62.2667 219° Southwest 420 483 36,000  Level Moncton Center
14:33 48.1000 -62.3833 223° Southwest 420 483 36,000  Level Moncton Center
14:34 48.0167 -62.5167 227° Southwest 420 483 36,000  Level Moncton Center
14:35 47.9167 -62.6167 214° Southwest 420 483 36,000  Level Moncton Center
14:36 47.8333 -62.7500 227° Southwest 420 483 36,000  Level Moncton Center
14:37 47.7500 -62.8500 219° Southwest 420 483 36,000  Level Moncton Center
14:38 47.6500 -62.9833 222° Southwest 420 483 36,000  Level Moncton Center
14:39 47.5833 -63.1000 230° Southwest 420 483 36,000  Level Moncton Center
14:40 47.5000 -63.2000 219° Southwest 420 483 36,000  Level Moncton Center
14:41 47.4000 -63.3333 222° Southwest 420 483 36,000  Level Moncton Center
14:42 47.3167 -63.4333 219° Southwest 420 483 36,000  Level Moncton Center
14:43 47.2333 -63.5667 227° Southwest 430 495 36,000  Level Moncton Center
14:44 47.1333 -63.6833 218° Southwest 430 495 36,000  Level Moncton Center
14:45 47.0500 -63.8000 224° Southwest 430 495 36,000  Level Moncton Center
14:46 46.9500 -63.9000 214° Southwest 430 495 36,000  Level Moncton Center
14:47 46.8667 -64.0333 228° Southwest 430 495 36,000  Level Moncton Center
14:48 46.7833 -64.1500 224° Southwest 430 495 36,000  Level Moncton Center
14:54 46.2569 -64.8181 224° Southwest 452 520 36,000  Level FlightAware ADS-B (CYQI)
14:55 46.1570 -64.9417 221° Southwest 452 520 36,000  Level FlightAware ADS-B (CYQI)
14:55 46.1077 -65.0023 221° Southwest 450 518 36,000  Level FlightAware ADS-B (CYQI)
14:56 46.0301 -65.0976 220° Southwest 450 518 36,000  Level FlightAware ADS-B (CYQI)
14:57 45.9151 -65.2381 220° Southwest 449 517 36,000  Level FlightAware ADS-B (CYQI)
14:58 45.8813 -65.2792 220° Southwest 451 519 36,000  Level FlightAware ADS-B (CYQI)
14:59 45.7962 -65.3825 220° Southwest 451 519 36,000  Level FlightAware ADS-B (CYQI)
14:59 45.7425 -65.4540 223° Southwest 455 524 36,000  Level FlightAware ADS-B (CYQI)
15:00 45.6960 -65.5284 228° Southwest 455 524 36,000  Level FlightAware ADS-B (CYQI)
15:00 45.6487 -65.6035 228° Southwest 455 524 36,000  Level FlightAware ADS-B (CYQI)
15:01 45.6168 -65.6541 228° Southwest 457 526 36,000  Level FlightAware ADS-B (CYQI)
15:02 45.6048 -65.6731 228° Southwest 457 526 36,000  Level FlightAware ADS-B (CYQI)
15:02 45.5050 -65.8300 228° Southwest 457 526 36,000  Level FlightAware
15:03 45.4481 -65.9200 228° Southwest 457 526 36,000  Level FlightAware ADS-B (CYQI)
15:03 45.4058 -65.9863 228° Southwest 456 525 36,000  Level FlightAware ADS-B (CYQI)
15:04 45.3642 -66.0514 228° Southwest 455 524 36,000  Level FlightAware ADS-B (CYQI)
15:04 45.3277 -66.1084 228° Southwest 456 525 36,000  Level FlightAware ADS-B (CYQI)
15:05 45.2561 -66.2197 228° Southwest 457 526 36,000  Level FlightAware ADS-B (CYQI)
15:06 45.2070 -66.2959 228° Southwest 456 525 36,000  Level FlightAware ADS-B (CYQI)
15:06 45.1673 -66.3574 228° Southwest 454 522 36,000  Level FlightAware ADS-B (CYQI)
15:07 45.1209 -66.4288 227° Southwest 450 518 36,000  Level FlightAware ADS-B (CYQI)
15:07 45.0814 -66.4896 227° Southwest 449 517 36,000  Level FlightAware ADS-B (CYQI)
15:08 45.0284 -66.5709 227° Southwest 449 517 36,000  Level FlightAware ADS-B (CYQI)
15:08 44.9681 -66.6630 227° Southwest 448 516 36,000  Level FlightAware ADS-B (CYQI)
15:09 44.9120 -66.7480 227° Southwest 448 516 36,000  Level FlightAware
15:10 44.8640 -66.8210 227° Southwest 448 516 36,000  Level FlightAware
15:10 44.8120 -66.9000 227° Southwest 447 514 36,000  Level FlightAware
15:11 44.7784 -66.9513 227° Southwest 449 517 36,000  Level FlightAware ADS-B (CYQI)
15:11 44.7408 -67.0081 227° Southwest 449 517 36,000  Level FlightAware ADS-B
15:12 44.6895 -67.0853 227° Southwest 450 518 36,000  Level FlightAware ADS-B (CYQI)
15:12 44.6536 -67.1393 227° Southwest 449 517 36,000  Level FlightAware ADS-B
15:13 44.5931 -67.2299 227° Southwest 446 513 36,000  Level FlightAware ADS-B
15:13 44.5472 -67.2986 227° Southwest 446 513 36,000  Level FlightAware ADS-B
15:14 44.5060 -67.3600 227° Southwest 446 513 36,000  Level FlightAware ADS-B
15:15 44.4458 -67.4494 227° Southwest 446 513 36,000  Level FlightAware ADS-B (CYQI)
15:15 44.4074 -67.5064 227° Southwest 445 512 36,000  Level FlightAware ADS-B (CYQI)
15:16 44.3576 -67.5800 227° Southwest 447 514 36,000  Level FlightAware ADS-B (CYQI)
15:16 44.3139 -67.6444 227° Southwest 449 517 36,000  Level FlightAware ADS-B
15:17 44.2567 -67.7286 227° Southwest 451 519 36,000  Level FlightAware ADS-B (CYQI)
15:17 44.2180 -67.7850 226° Southwest 445 512 36,000  Level FlightAware
15:18 44.1886 -67.8285 227° Southwest 452 520 36,000  Level FlightAware ADS-B (CYQI)
15:18 44.1436 -67.8943 226° Southwest 453 521 36,000  Level FlightAware ADS-B (CYQI)
15:19 44.0953 -67.9647 226° Southwest 453 521 36,000  Level FlightAware ADS-B (CYQI)
15:19 44.0462 -68.0361 226° Southwest 454 522 36,000  Level FlightAware ADS-B (CYQI)
15:20 43.9908 -68.1165 226° Southwest 455 524 36,000  Level FlightAware ADS-B (CYQI)
15:21 43.9210 -68.2170 226° Southwest 450 518 36,000  Level FlightAware
15:21 43.9020 -68.2448 226° Southwest 457 526 36,000  Level FlightAware ADS-B (CYQI)
15:21 43.8593 -68.3065 226° Southwest 458 527 36,000  Level FlightAware ADS-B (CYQI)
15:22 43.8190 -68.3640 226° Southwest 459 528 36,000  Level FlightAware
15:23 43.7570 -68.4530 226° Southwest 460 529 36,000  Level FlightAware
15:23 43.7105 -68.5196 226° Southwest 464 534 36,000  Level FlightAware ADS-B (CYQI)
15:24 43.6433 -68.6155 226° Southwest 466 536 36,000  Level FlightAware ADS-B (CYQI)
15:25 43.6200 -68.6490 226° Southwest 460 529 36,000  Level FlightAware
15:25 43.5494 -68.7487 226° Southwest 465 535 36,000  Level FlightAware ADS-B (CYQI)
15:25 43.5041 -68.8129 226° Southwest 465 535 36,000  Level FlightAware ADS-B (CYQI)
15:26 43.4506 -68.8885 226° Southwest 467 537 36,000  Level FlightAware ADS-B (CYQI)
15:26 43.4039 -68.9543 226° Southwest 470 541 36,000  Level FlightAware ADS-B (CYQI)
15:27 43.3624 -69.0125 226° Southwest 471 542 36,000  Level FlightAware ADS-B (CYQI)
15:28 43.3930 -68.9740 42° Northeast 460 529 36,000  Level FlightAware
15:28 43.2955 -69.1063 225° Southwest 473 544 36,000  Level FlightAware ADS-B (CYQI)
15:28 43.2363 -69.1890 226° Southwest 475 547 36,000  Level FlightAware ADS-B (CYQI)
15:29 43.1813 -69.2655 225° Southwest 474 545 36,000  Level FlightAware ADS-B (KBOS)
15:29 43.1435 -69.3180 225° Southwest 476 548 36,000  Level FlightAware ADS-B (CYQI)
15:30 43.0858 -69.3979 225° Southwest 477 549 36,000  Level FlightAware ADS-B (KBOS)
15:31 43.0405 -69.4605 225° Southwest 478 550 36,000  Level FlightAware ADS-B (KBOS)
15:31 42.9892 -69.5312 225° Southwest 479 551 36,000  Level FlightAware ADS-B (KBOS)
15:32 42.9460 -69.5907 225° Southwest 479 551 36,000  Level FlightAware ADS-B (KBOS)
15:32 42.8941 -69.6619 225° Southwest 479 551 36,000  Level FlightAware ADS-B (KBOS)
15:33 42.8461 -69.7275 225° Southwest 479 551 36,000  Level FlightAware ADS-B (KBOS)
15:33 42.7985 -69.7926 225° Southwest 478 550 36,000  Level FlightAware ADS-B (KBOS)
15:34 42.7503 -69.8582 225° Southwest 477 549 36,000  Level FlightAware ADS-B (KBOS)
15:34 42.7032 -69.9224 225° Southwest 477 549 36,000  Level FlightAware ADS-B (KBOS)
15:35 42.6550 -69.9878 225° Southwest 477 549 36,000  Level FlightAware ADS-B (KBOS)
15:35 42.6005 -70.0615 225° Southwest 477 549 36,000  Level FlightAware ADS-B (KBOS)
15:36 42.5535 -70.1250 225° Southwest 479 551 36,000  Level FlightAware ADS-B (KBOS)
15:36 42.5062 -70.1886 225° Southwest 481 554 36,000  Level FlightAware ADS-B (KBOS)
15:37 42.4605 -70.2500 225° Southwest 479 551 36,000  Level FlightAware ADS-B (KBOS)
15:37 42.4093 -70.3186 225° Southwest 479 551 36,000  Level FlightAware ADS-B (KBOS)
15:38 42.3495 -70.3985 225° Southwest 480 552 36,000  Level FlightAware ADS-B (KBOS)
15:38 42.2964 -70.4694 225° Southwest 479 551 36,000  Level FlightAware ADS-B (KBOS)
15:39 42.2161 -70.5762 225° Southwest 479 551 36,000  Level FlightAware ADS-B (KBOS)
15:40 42.1683 -70.6396 225° Southwest 479 551 36,000  Level FlightAware ADS-B (KBOS)
15:40 42.1218 -70.7010 224° Southwest 479 551 36,000  Level FlightAware ADS-B (KBOS)
15:41 42.0723 -70.7664 224° Southwest 479 551 36,000  Level FlightAware ADS-B (KBOS)
15:41 42.0227 -70.8317 224° Southwest 480 552 36,000  Level FlightAware ADS-B (KBOS)
15:42 41.9589 -70.9154 224° Southwest 482 555 36,000  Level FlightAware ADS-B (KBOS)
15:43 41.9085 -70.9815 224° Southwest 484 557 36,000  Level FlightAware ADS-B (KBOS)
15:43 41.8240 -71.0910 224° Southwest 485 558 36,000  Level FlightAware
15:44 41.7580 -71.1780 225° Southwest 484 557 36,000  Level FlightAware
15:45 41.7100 -71.2400 224° Southwest 487 560 36,000  Level FlightAware
15:45 41.6918 -71.2636 224° Southwest 482 555 36,000  Level FlightAware ADS-B (KSNC)
15:45 41.6440 -71.3250 224° Southwest 488 562 36,000  Level FlightAware
15:46 41.6071 -71.3731 224° Southwest 490 564 36,000  Level FlightAware ADS-B (KSNC)
15:46 41.5483 -71.4487 224° Southwest 489 563 36,000  Level FlightAware ADS-B (KSNC)
15:47 41.4883 -71.5258 224° Southwest 489 563 36,000  Level FlightAware ADS-B (KSNC)
15:47 41.4379 -71.5904 224° Southwest 489 563 36,000  Level FlightAware ADS-B (KSNC)
15:48 41.3669 -71.6813 224° Southwest 491 565 36,000  Level FlightAware ADS-B (KSNC)
15:49 41.3163 -71.7457 224° Southwest 491 565 36,000  Level FlightAware ADS-B (KSNC)
15:49 41.2451 -71.8362 224° Southwest 493 567 36,000  Level FlightAware ADS-B (KSNC)
15:50 41.1957 -71.8989 224° Southwest 494 568 36,000  Level FlightAware ADS-B (KSNC)
15:50 41.1311 -71.9806 224° Southwest 495 570 36,000  Level FlightAware ADS-B (KSNC)
15:51 41.0692 -72.0586 224° Southwest 496 571 36,000  Level FlightAware ADS-B (KSNC)
15:52 41.0070 -72.1370 224° Southwest 497 572 36,000  Level FlightAware
15:52 40.9940 -72.1531 223° Southwest 497 572 36,000  Level FlightAware ADS-B (KSNC)
15:52 40.9420 -72.2190 224° Southwest 499 574 36,000  Level FlightAware
15:53 40.9278 -72.2355 221° Southwest 500 575 36,000  Level FlightAware ADS-B (KSNC)
15:53 40.8799 -72.2928 222° Southwest 501 577 36,000  Level FlightAware ADS-B (KSNC)
15:54 40.8197 -72.3646 222° Southwest 501 577 36,000  Level FlightAware ADS-B (KSNC)
15:54 40.7656 -72.4292 222° Southwest 501 577 36,000  Level FlightAware ADS-B (KSNC)
15:55 40.7016 -72.5055 222° Southwest 501 577 36,000  Level FlightAware ADS-B (KSNC)
15:55 40.6497 -72.5674 222° Southwest 501 577 36,000  Level FlightAware ADS-B (KSNC)
15:56 40.5905 -72.6377 222° Southwest 500 575 36,000  Level FlightAware ADS-B (KSNC)
15:56 40.5290 -72.7105 222° Southwest 501 577 36,000  Level FlightAware ADS-B (KSNC)
15:57 40.4660 -72.7848 222° Southwest 502 578 36,000  Level FlightAware ADS-B (KSNC)
15:58 40.4105 -72.8503 222° Southwest 503 579 36,000  Level FlightAware ADS-B (KSNC)
15:58 40.3522 -72.9188 222° Southwest 503 579 36,000  Level FlightAware ADS-B (KSNC)
15:59 40.2995 -72.9806 222° Southwest 503 579 36,000  Level FlightAware ADS-B (KSNC)
15:59 40.2246 -73.0683 222° Southwest 502 578 36,000  Level FlightAware ADS-B (KSNC)
16:00 40.1688 -73.1333 222° Southwest 502 578 36,000  Level FlightAware ADS-B (KSNC)
16:00 40.1196 -73.1905 222° Southwest 503 579 36,000  Level FlightAware ADS-B (KSNC)
16:01 40.0497 -73.2718 222° Southwest 503 579 36,000  Level FlightAware ADS-B (KSNC)
16:02 39.9780 -73.3540 221° Southwest 502 578 36,000  Level FlightAware
16:02 39.9180 -73.4240 222° Southwest 502 578 36,000  Level FlightAware
16:03 39.8453 -73.5076 221° Southwest 504 580 36,000  Level FlightAware ADS-B (KSNC)
16:04 39.7533 -73.6132 221° Southwest 504 580 36,000  Level FlightAware ADS-B (KSNC)
16:04 39.6896 -73.6861 221° Southwest 504 580 36,000  Level FlightAware ADS-B (KSNC)
16:05 39.6170 -73.7680 221° Southwest 503 579 36,000  Level FlightAware
16:05 39.5868 -73.8033 222° Southwest 503 579 36,000  Level FlightAware ADS-B (KSNC)
16:06 39.5070 -73.8940 221° Southwest 503 579 36,000  Level FlightAware ADS-B (KSNC)
16:07 39.4330 -73.9780 221° Southwest 503 579 36,000  Level FlightAware
16:08 39.3720 -74.0470 221° Southwest 504 580 36,000  Level FlightAware
16:08 39.3070 -74.1200 221° Southwest 506 582 36,000  Level FlightAware
16:09 39.2420 -74.1930 221° Southwest 508 585 36,000  Level FlightAware
16:10 39.1570 -74.2880 221° Southwest 509 586 36,000  Level FlightAware
16:10 39.0940 -74.3590 221° Southwest 508 585 36,000  Level FlightAware
16:11 39.0040 -74.4590 221° Southwest 508 585 36,000  Level FlightAware
16:12 38.9260 -74.5450 221° Southwest 509 586 36,000  Level FlightAware
16:13 38.8410 -74.6360 220° Southwest 509 586 36,000  Level FlightAware
16:13 38.7860 -74.6940 219° Southwest 511 588 36,000  Level FlightAware
16:14 38.7110 -74.7760 220° Southwest 504 580 36,000  Level FlightAware
16:14 38.6400 -74.8500 219° Southwest 503 579 36,000  Level FlightAware
16:15 38.5730 -74.9210 220° Southwest 502 578 36,000  Level FlightAware
16:15 38.5200 -74.9770 220° Southwest 502 578 36,000  Level FlightAware
16:16 38.4440 -75.0590 220° Southwest 503 579 36,000  Level FlightAware
16:17 38.3880 -75.1120 217° Southwest 507 583 36,000  Level FlightAware
16:17 38.3080 -75.1690 209° Southwest 515 593 36,000  Level FlightAware
16:18 38.2360 -75.2210 210° Southwest 516 594 36,000  Level FlightAware
16:18 38.1640 -75.2740 210° Southwest 517 595 36,000  Level FlightAware
16:19 38.0930 -75.3240 209° Southwest 517 595 36,000  Level FlightAware
16:20 37.9980 -75.3920 209° Southwest 518 596 36,000  Level FlightAware
16:20 37.9440 -75.4320 210° Southwest 518 596 36,000  Level FlightAware
16:21 37.8580 -75.4930 209° Southwest 518 596 36,000  Level FlightAware
16:21 37.7860 -75.5450 210° Southwest 519 597 36,000  Level FlightAware
16:22 37.7200 -75.5920 209° Southwest 519 597 36,000  Level FlightAware
16:23 37.6510 -75.6410 209° Southwest 518 596 36,000  Level FlightAware
16:23 37.5660 -75.7010 209° Southwest 516 594 36,000  Level FlightAware
16:24 37.4940 -75.7520 209° Southwest 516 594 36,000  Level FlightAware
16:24 37.4230 -75.8020 209° Southwest 516 594 36,000  Level FlightAware
16:25 37.3530 -75.8520 210° Southwest 517 595 36,000  Level FlightAware
16:25 37.2850 -75.8990 209° Southwest 518 596 36,000  Level FlightAware
16:26 37.1930 -75.9640 209° Southwest 517 595 36,000  Level FlightAware
16:27 37.1200 -76.0150 209° Southwest 517 595 36,000  Level FlightAware
16:27 37.0410 -76.0700 209° Southwest 517 595 36,000  Level FlightAware
16:28 36.9530 -76.1320 209° Southwest 518 596 36,000  Level FlightAware
16:29 36.8700 -76.1890 209° Southwest 518 596 36,000  Level FlightAware
16:30 36.7850 -76.2480 209° Southwest 518 596 36,000  Level FlightAware
16:30 36.7240 -76.2900 209° Southwest 518 596 36,000  Level FlightAware
16:31 36.6280 -76.3570 209° Southwest 517 595 36,000  Level FlightAware
16:31 36.5550 -76.4070 209° Southwest 585 673 36,000  Level FlightAware
16:32 36.4810 -76.4580 209° Southwest 517 595 36,000  Level FlightAware
16:32 36.4200 -76.5000 209° Southwest 517 595 36,000  Level FlightAware
16:33 36.3460 -76.5500 209° Southwest 518 596 36,000  Level FlightAware
16:34 36.2710 -76.6020 209° Southwest 512 589 36,000  Level FlightAware
16:34 36.1870 -76.6590 209° Southwest 512 589 36,000  Level FlightAware
16:35 36.1170 -76.7060 208° Southwest 513 590 36,000  Level FlightAware
16:35 36.0490 -76.7520 209° Southwest 514 592 36,000  Level FlightAware
16:36 35.9780 -76.8010 209° Southwest 514 592 36,000  Level FlightAware
16:37 35.8940 -76.8570 208° Southwest 514 592 36,000  Level FlightAware
16:37 35.8280 -76.9020 209° Southwest 514 592 36,000  Level FlightAware
16:38 35.7650 -76.9450 209° Southwest 514 592 36,000  Level FlightAware
16:38 35.7010 -76.9890 209° Southwest 514 592 36,000  Level FlightAware
16:39 35.5950 -77.0580 208° Southwest 522 601 36,000  Level FlightAware
16:40 35.5000 -77.1210 208° Southwest 523 602 36,000  Level FlightAware
16:40 35.4230 -77.1720 208° Southwest 523 602 36,000  Level FlightAware
16:41 35.3330 -77.2320 209° Southwest 522 601 36,000  Level FlightAware
16:41 35.2680 -77.2750 208° Southwest 522 601 36,000  Level FlightAware
16:42 35.1770 -77.3360 209° Southwest 524 603 36,000  Level FlightAware
16:43 35.0980 -77.3880 208° Southwest 524 603 36,000  Level FlightAware
16:43 35.0190 -77.4400 208° Southwest 524 603 36,000  Level FlightAware
16:44 34.9500 -77.4850 208° Southwest 524 603 36,000  Level FlightAware
16:45 34.8700 -77.5370 208° Southwest 524 603 36,000  Level FlightAware
16:45 34.8000 -77.5830 208° Southwest 525 604 36,000  Level FlightAware
16:46 34.7230 -77.6340 209° Southwest 523 602 36,000  Level FlightAware
16:46 34.6490 -77.6820 208° Southwest 523 602 36,000  Level FlightAware
16:47 34.5730 -77.7310 208° Southwest 523 602 36,000  Level FlightAware
16:47 34.4990 -77.7790 208° Southwest 523 602 36,000  Level FlightAware
16:48 34.4230 -77.8280 208° Southwest 523 602 36,000  Level FlightAware
16:49 34.3410 -77.8690 202° Southwest 521 600 36,000  Level FlightAware
16:49 34.2610 -77.8980 197° South 507 583 36,000  Level FlightAware
16:50 34.2270 -77.9080 194° South 507 583 36,000  Level FlightAware
16:50 34.1530 -77.9310 194° South 507 583 36,000  Level FlightAware
16:51 34.0660 -77.9570 194° South 507 583 36,000  Level FlightAware
16:52 33.9900 -77.9790 193° South 508 585 36,000  Level FlightAware
16:52 33.8700 -78.0140 194° South 509 586 36,000  Level FlightAware
16:53 33.7790 -78.0400 193° South 509 586 36,000  Level FlightAware
16:54 33.7040 -78.0620 194° South 506 582 36,000  Level FlightAware
16:54 33.6190 -78.0860 193° South 499 574 36,000  Level FlightAware
16:55 33.5420 -78.1080 193° South 497 572 36,000  Level FlightAware
16:55 33.4640 -78.1310 194° South 497 572 36,000  Level FlightAware
16:56 33.3680 -78.1580 193° South 497 572 36,000  Level FlightAware
16:57 33.3110 -78.1740 193° South 498 573 36,000  Level FlightAware
16:57 33.2270 -78.1980 193° South 499 574 36,000  Level FlightAware
16:58 33.1450 -78.2210 193° South 499 574 36,000  Level FlightAware
16:58 33.0840 -78.2390 194° South 500 575 36,000  Level FlightAware
16:59 33.0130 -78.2590 193° South 498 573 36,000  Level FlightAware
17:00 32.8880 -78.2940 193° South 497 572 36,000  Level FlightAware
17:00 32.7420 -78.3350 193° South 495 570 36,000  Level FlightAware
17:01 32.6650 -78.3570 194° South 495 570 36,000  Level FlightAware
17:02 32.5890 -78.3780 193° South 493 567 36,000  Level FlightAware
17:02 32.4920 -78.4050 193° South 491 565 36,000  Level FlightAware
17:03 32.3680 -78.4400 193° South 485 558 36,000  Level FlightAware
17:04 32.2900 -78.4630 194° South 485 558 36,000  Level FlightAware
17:05 32.3420 -78.4480 14° North 484 557 36,000  Level FlightAware
17:05 32.2680 -78.4700 194° South 484 557 36,000  Level FlightAware
17:06 32.1980 -78.4900 194° South 484 557 36,000  Level FlightAware
17:06 32.1320 -78.5100 194° South 484 557 36,000  Level FlightAware
17:07 32.0650 -78.5290 194° South 484 557 36,000  Level FlightAware
17:08 31.9990 -78.5490 194° South 484 557 36,000  Level FlightAware
17:09 31.6920 -78.6350 193° South 482 555 36,000  Level FlightAware
17:09 31.6250 -78.6530 193° South 482 555 36,000  Level FlightAware
17:10 31.5590 -78.6710 193° South 482 555 36,000  Level FlightAware
17:10 31.4890 -78.6900 193° South 482 555 36,000  Level FlightAware
17:11 31.4240 -78.7080 193° South 482 555 36,000  Level FlightAware
17:12 31.3580 -78.7260 193° South 482 555 36,000  Level FlightAware
17:12 31.2910 -78.7440 193° South 482 555 36,000  Level FlightAware
17:13 31.2210 -78.7630 193° South 482 555 36,000  Level FlightAware
17:13 31.1530 -78.7810 193° South 482 555 36,000  Level FlightAware
17:14 31.0860 -78.7990 193° South 482 555 36,000  Level FlightAware
17:15 31.0200 -78.8170 193° South 482 555 36,000  Level FlightAware
17:15 30.9530 -78.8350 193° South 482 555 36,000  Level FlightAware
17:16 30.8900 -78.8520 193° South 482 555 36,000  Level FlightAware
17:16 30.8240 -78.8700 193° South 482 555 36,000  Level FlightAware
17:17 30.7570 -78.8870 192° South 482 555 36,000  Level FlightAware
17:18 30.6890 -78.9060 194° South 482 555 36,000  Level FlightAware
17:18 30.4458 -78.9894 194° South 486 559 36,000  Level Miami Center
17:19 30.3242 -79.0400 200° South 480 552 36,000  Level Miami Center
17:20 30.2003 -79.0925 200° South 469 540 36,000  Level Miami Center
17:21 30.0828 -79.1428 200° South 464 534 36,000  Level Miami Center
17:22 29.9631 -79.1978 202° Southwest 464 534 36,000  Level Miami Center
17:23 29.8475 -79.2525 202° Southwest 458 527 36,000  Level Miami Center
17:24 29.7258 -79.3000 199° South 458 527 36,000  Level Miami Center
17:25 29.6081 -79.3572 203° Southwest 458 527 36,000  Level Miami Center
17:31 28.9620 -79.5920 203° Southwest 36,000  Level FlightAware
17:31 28.8850 -79.6200 198° South 458 527 36,000  Level FlightAware
17:32 28.8160 -79.6460 198° South 458 527 36,000  Level FlightAware
17:32 28.7370 -79.6750 198° South 459 528 36,000  Level FlightAware
17:33 28.6730 -79.6980 198° South 460 529 36,000  Level FlightAware
17:33 28.5990 -79.7250 198° South 453 521 36,000  Level FlightAware
17:34 28.5310 -79.7500 198° South 460 529 36,000  Level FlightAware
17:35 28.4490 -79.7800 198° South 457 526 36,000  Level FlightAware
17:35 28.3920 -79.8010 198° South 458 527 36,000  Level FlightAware
17:36 28.3150 -79.8290 198° South 459 528 36,000  Level FlightAware
17:36 28.2550 -79.8510 198° South 459 528 36,000  Level FlightAware
17:37 28.1630 -79.8840 198° South 453 521 36,000  Level FlightAware
17:38 28.1040 -79.9050 197° South 453 521 36,000  Level FlightAware
17:38 28.0340 -79.9310 198° South 460 529 36,000  Level FlightAware
17:39 27.9630 -79.9560 197° South 459 528 36,000  Level FlightAware
17:39 27.8850 -79.9840 198° South 458 527 36,000  Level FlightAware
17:40 27.8230 -80.0070 198° South 457 526 36,000  Level FlightAware
17:40 27.7500 -80.0330 197° South 457 526 36,000  Level FlightAware
17:41 27.6820 -80.0570 197° South 457 526 36,000  Level FlightAware
17:42 27.6060 -80.0850 198° South 457 526 36,000  Level FlightAware
17:42 27.5400 -80.1080 197° South 457 526 36,000  Level FlightAware
17:43 27.4560 -80.1380 198° South 456 525 36,000  Level FlightAware
17:43 27.3960 -80.1600 198° South 456 525 36,000  Level FlightAware
17:44 27.3270 -80.1850 198° South 456 525 36,000  Level FlightAware
17:45 27.2450 -80.2140 197° South 455 524 36,000  Level FlightAware
17:45 27.1840 -80.2360 198° South 455 524 36,000  Level FlightAware
17:46 27.1160 -80.2590 197° South 454 522 36,000  Level FlightAware
17:46 27.0350 -80.2880 198° South 453 521 36,000  Level FlightAware
17:47 26.9760 -80.3090 198° South 454 522 36,000  Level FlightAware
17:47 26.9060 -80.3340 198° South 455 524 36,000  Level FlightAware
17:48 26.8240 -80.3630 198° South 455 524 36,000  Level FlightAware
17:49 26.7410 -80.3920 197° South 454 522 36,000  Level FlightAware
17:49 26.6750 -80.4150 197° South 453 521 36,000  Level FlightAware
17:50 26.5920 -80.4450 198° South 453 521 36,000  Level FlightAware
17:51 26.5240 -80.4690 198° South 454 522 36,000  Level FlightAware
17:51 26.4520 -80.4940 197° South 455 524 36,000  Level FlightAware
17:52 26.3820 -80.5190 198° South 454 522 36,000  Level FlightAware
17:52 26.3130 -80.5430 197° South 452 520 36,000  Level FlightAware
17:53 26.2520 -80.5640 197° South 443 510 36,000  Level FlightAware
17:54 26.1710 -80.5920 197° South 442 509 36,000  Level FlightAware
17:54 26.1050 -80.6150 197° South 441 507 36,000  Level FlightAware
17:55 26.0330 -80.6400 197° South 442 509 36,000  Level FlightAware
17:55 25.9650 -80.6640 198° South 440 506 36,000  Level FlightAware
17:56 25.8950 -80.6890 198° South 438 504 36,000  Level FlightAware
17:56 25.8260 -80.7120 197° South 436 502 36,000  Level FlightAware
17:57 25.7570 -80.7370 198° South 436 502 36,000  Level FlightAware
17:58 25.6780 -80.7640 197° South 438 504 36,000  Level FlightAware
17:58 25.6320 -80.7890 206° Southwest 443 510 36,000  Level FlightAware
17:58 25.6080 -80.8110 220° Southwest 437 503 36,000  Level FlightAware
17:59 25.5670 -80.8570 225° Southwest 438 504 36,000  Level FlightAware
18:00 25.5050 -80.9230 224° Southwest 445 512 36,000  Level FlightAware
18:00 25.4540 -80.9780 224° Southwest 445 512 36,000  Level FlightAware
18:01 25.4020 -81.0340 224° Southwest 437 503 36,000  Level FlightAware
18:01 25.3530 -81.0870 224° Southwest 437 503 36,000  Level FlightAware
18:02 25.2990 -81.1440 224° Southwest 445 512 36,000  Level FlightAware
18:02 25.2480 -81.2000 225° Southwest 446 513 36,000  Level FlightAware
18:03 25.2060 -81.2450 224° Southwest 447 514 36,000  Level FlightAware
18:04 25.1520 -81.3020 224° Southwest 446 513 36,000  Level FlightAware
18:04 25.0920 -81.3660 224° Southwest 438 504 36,000  Level FlightAware
18:05 25.0410 -81.4210 224° Southwest 437 503 36,000  Level FlightAware
18:05 24.9910 -81.4740 224° Southwest 437 503 36,000 -360 Level FlightAware
18:06 24.9370 -81.5320 224° Southwest 447 514 35,600 -900 Descending FlightAware
18:07 24.8890 -81.5830 224° Southwest 454 522 35,000 -1,080 Descending FlightAware
18:07 24.8320 -81.6440 224° Southwest 451 519 34,400 -1,320 Descending FlightAware
18:08 24.7810 -81.6970 223° Southwest 453 521 33,500 -1,320 Descending FlightAware
18:08 24.7250 -81.7570 224° Southwest 453 521 32,900 -1,080 Descending FlightAware
18:09 24.6730 -81.8120 224° Southwest 450 518 32,300 -1,080 Descending FlightAware
18:09 24.6220 -81.8660 224° Southwest 444 511 31,700 -1,200 Descending FlightAware
18:10 24.5690 -81.9220 224° Southwest 432 497 30,900 -1,260 Descending FlightAware
18:11 24.5270 -81.9660 224° Southwest 429 494 30,300 -1,320 Descending FlightAware
18:11 24.4690 -82.0280 224° Southwest 428 493 29,400 -1,380 Descending FlightAware
18:12 24.4200 -82.0790 223° Southwest 420 483 28,700 -1,320 Descending FlightAware
18:12 24.3730 -82.1290 224° Southwest 412 474 27,900 -1,380 Descending FlightAware
18:13 24.3180 -82.1860 223° Southwest 410 472 27,100 -1,380 Descending FlightAware
18:14 24.2620 -82.2450 224° Southwest 408 470 26,200 -840 Descending FlightAware
18:14 24.2200 -82.2900 224° Southwest 408 470 26,000 -900 Descending FlightAware
18:15 24.1710 -82.3410 224° Southwest 403 464 25,200 -1,320 Descending FlightAware
18:16 24.0990 -82.4150 223° Southwest 398 458 24,100 -1,260 Descending FlightAware
18:16 24.0520 -82.4630 223° Southwest 398 458 23,300 -720 Descending FlightAware
18:17 24.0100 -82.5050 222° Southwest 398 458 23,300  Level FlightAware
18:18 23.9680 -82.5480 223° Southwest 398 458 23,300  Level FlightAware
18:18 23.9270 -82.5900 223° Southwest 398 458 23,300  Level FlightAware
18:19 23.8840 -82.6340 223° Southwest 398 458 23,300  Level FlightAware
18:19 23.8430 -82.6760 223° Southwest 398 458 23,300  Level FlightAware
18:25 23.2398 -82.4871 164° South  Level Estimated
18:26 23.1227 -82.4506 164° South  Level Estimated
18:27 23.0055 -82.4142 164° South  Level Estimated
18:28 22.9891 -82.4091 164° South  Level Estimated
18:29 22.9891 -82.4091 51° Northeast  Level Estimated
18:30 22.9891 -82.4091 51° Northeast  Level Estimated
18:31 22.9891 -82.4091 51° Northeast  Level Estimated
18:32 22.9891 -82.4091 51° Northeast  Level Estimated
18:33 22.9891 -82.4091 51° Northeast  Level Estimated
18:34 22.9891 -82.4091 51° Northeast  Level Estimated
18:35 22.9891 -82.4091 51° Northeast  Level Estimated
18:36 22.9891 -82.4091 51° Northeast  Level Estimated
18:37 22.9891 -82.4091 51° Northeast  Level Estimated
18:38 22.9891 -82.4091 51° Northeast  Level Estimated
18:39 22.9891 -82.4091 51° Northeast  Level Estimated
18:40 22.9891 -82.4091 51° Northeast  Level Estimated
18:41 22.9891 -82.4091 51° Northeast  Level Estimated
18:42 22.9891 -82.4091 51° Northeast  Level Estimated
18:43 22.9891 -82.4091 51° Northeast  Level Estimated
18:44 22.9891 -82.4091 51° Northeast  Level Estimated
18:45 22.9891 -82.4091 51° Northeast  Level Estimated
18:46 22.9891 -82.4091 51° Northeast  Level Estimated